Time;durP1;ratioP1;P1;durP2;ratioP2;P2;SDS_P1;SDS_P2;PMS_P1;PMS_P2;Temp;Humidity;BMP_temperature;BMP_pressure;BME280_temperature;BME280_humidity;BME280_pressure;Samples;Min_cycle;Max_cycle;Signal;HPM_P1;HPM_P2
2023/05/18 00:00:45;;;;;;;;;;;17.80;44.80;;;;;;5030674;28;19946;-72
2023/05/18 00:03:11;;;;;;;;;;;17.80;44.80;;;;;;5030531;28;20016;-73
2023/05/18 00:05:36;;;;;;;;;;;17.80;44.80;;;;;;5045663;28;20017;-72
2023/05/18 00:08:02;;;;;;;;;;;17.70;44.80;;;;;;5051517;28;19921;-72
2023/05/18 00:10:28;;;;;;;;;;;17.80;44.90;;;;;;5051343;28;20348;-72
2023/05/18 00:12:54;;;;;;;;;;;17.70;44.90;;;;;;5050302;28;19932;-72
2023/05/18 00:15:19;;;;;;;;;;;17.70;44.90;;;;;;5050373;28;19947;-72
2023/05/18 00:17:45;;;;;;;;;;;17.70;44.90;;;;;;5050589;28;19921;-72
2023/05/18 00:20:10;;;;;;;;;;;17.70;44.90;;;;;;5053526;28;19928;-72
2023/05/18 00:22:38;;;;;;;;;;;17.70;44.90;;;;;;5054277;28;19921;-72
2023/05/18 00:25:03;;;;;;;;;;;17.70;44.90;;;;;;5055064;28;19921;-73
2023/05/18 00:27:30;;;;;;;;;;;17.70;45.00;;;;;;5054194;28;20366;-72
2023/05/18 00:29:55;;;;;;;;;;;17.70;45.00;;;;;;5054024;28;19964;-72
2023/05/18 00:32:21;;;;;;;;;;;17.60;44.90;;;;;;5053690;28;19979;-73
2023/05/18 00:34:46;;;;;;;;;;;17.60;44.90;;;;;;5054890;28;20372;-73
2023/05/18 00:37:12;;;;;;;;;;;17.70;45.00;;;;;;5055272;28;19921;-73
2023/05/18 00:39:37;;;;;;;;;;;17.60;45.00;;;;;;5053597;28;20277;-73
2023/05/18 00:42:03;;;;;;;;;;;17.60;45.00;;;;;;5054920;28;19962;-72
2023/05/18 00:44:28;;;;;;;;;;;17.60;45.00;;;;;;5054728;28;20395;-72
2023/05/18 00:46:54;;;;;;;;;;;17.60;45.00;;;;;;5053569;28;19925;-72
2023/05/18 00:49:20;;;;;;;;;;;17.60;45.00;;;;;;5053327;28;19925;-72
2023/05/18 00:51:45;;;;;;;;;;;17.60;45.00;;;;;;5053507;28;19931;-72
2023/05/18 00:54:11;;;;;;;;;;;17.60;45.80;;;;;;5053593;28;19924;-72
2023/05/18 00:56:40;;;;;;;;;;;17.60;45.00;;;;;;5053295;28;19921;-72
2023/05/18 00:59:08;;;;;;;;;;;17.50;45.00;;;;;;5054511;28;19956;-72
2023/05/18 01:01:35;;;;;;;;;;;17.50;45.00;;;;;;5053212;28;19956;-72
2023/05/18 01:04:01;;;;;;;;;;;17.50;45.00;;;;;;5053411;28;20122;-72
2023/05/18 01:06:31;;;;;;;;;;;17.50;45.10;;;;;;5053437;28;19922;-72
2023/05/18 01:08:58;;;;;;;;;;;17.50;45.10;;;;;;5053089;28;20019;-72
2023/05/18 01:11:29;;;;;;;;;;;17.50;45.10;;;;;;5054056;28;19928;-72
2023/05/18 01:13:57;;;;;;;;;;;17.50;45.10;;;;;;5053009;28;20137;-72
2023/05/18 01:16:26;;;;;;;;;;;17.50;45.10;;;;;;5054165;28;20284;-72
2023/05/18 01:18:59;;;;;;;;;;;17.50;45.10;;;;;;5054133;28;19921;-72
2023/05/18 01:24:20;;;;;;;;;;;17.40;45.10;;;;;;5089996;28;19917;-72
2023/05/18 01:26:47;;;;;;;;;;;17.50;45.10;;;;;;5088585;28;20023;-72
2023/05/18 01:29:16;;;;;;;;;;;17.40;45.10;;;;;;5089099;28;20283;-72
2023/05/18 01:31:42;;;;;;;;;;;17.40;45.10;;;;;;5089778;28;19928;-72
2023/05/18 01:34:07;;;;;;;;;;;17.40;45.10;;;;;;5089070;28;19921;-72
2023/05/18 01:36:33;;;;;;;;;;;17.40;45.10;;;;;;5087539;28;19978;-72
2023/05/18 01:39:00;;;;;;;;;;;17.40;45.10;;;;;;5088168;28;19921;-72
2023/05/18 01:41:27;;;;;;;;;;;17.40;45.20;;;;;;5088563;28;19920;-72
2023/05/18 01:46:35;;;;;;;;;;;17.40;45.20;;;;;;5110232;27;19927;-72
2023/05/18 01:49:08;;;;;;;;;;;17.40;45.20;;;;;;5109283;28;19920;-72
2023/05/18 01:51:36;;;;;;;;;;;17.30;45.20;;;;;;5108862;28;19920;-71
2023/05/18 01:54:03;;;;;;;;;;;17.30;45.20;;;;;;5109073;28;19962;-71
2023/05/18 01:56:30;;;;;;;;;;;17.20;45.20;;;;;;5108754;28;20037;-72
2023/05/18 01:58:56;;;;;;;;;;;17.30;45.20;;;;;;5109080;28;20436;-72
2023/05/18 02:01:22;;;;;;;;;;;17.30;45.20;;;;;;5109036;28;19920;-72
2023/05/18 02:03:48;;;;;;;;;;;17.30;45.20;;;;;;5108652;28;20006;-72
2023/05/18 02:06:13;;;;;;;;;;;17.20;45.20;;;;;;5108497;28;20010;-72
2023/05/18 02:08:39;;;;;;;;;;;17.30;45.20;;;;;;5108065;28;19927;-72
2023/05/18 02:11:05;;;;;;;;;;;17.30;45.20;;;;;;5108739;28;20018;-72
2023/05/18 02:13:30;;;;;;;;;;;17.20;45.20;;;;;;5108710;28;20414;-72
2023/05/18 02:15:56;;;;;;;;;;;17.20;45.30;;;;;;5108401;28;20279;-72
2023/05/18 02:18:21;;;;;;;;;;;17.20;45.20;;;;;;5109818;28;19994;-72
2023/05/18 02:20:47;;;;;;;;;;;17.20;45.20;;;;;;5109591;28;20026;-72
2023/05/18 02:23:13;;;;;;;;;;;17.20;45.30;;;;;;5108698;28;20429;-72
2023/05/18 02:25:39;;;;;;;;;;;17.20;45.30;;;;;;5108211;28;19924;-72
2023/05/18 02:28:05;;;;;;;;;;;17.20;45.30;;;;;;5109424;28;19931;-72
2023/05/18 02:30:32;;;;;;;;;;;17.20;45.30;;;;;;5108466;28;20027;-72
2023/05/18 02:32:57;;;;;;;;;;;17.20;45.30;;;;;;5107999;28;19951;-72
2023/05/18 02:35:23;;;;;;;;;;;17.20;45.30;;;;;;5108468;28;19948;-72
2023/05/18 02:37:48;;;;;;;;;;;17.20;45.40;;;;;;5108546;28;19927;-72
2023/05/18 02:40:14;;;;;;;;;;;17.10;45.30;;;;;;5109754;28;19920;-72
2023/05/18 02:42:40;;;;;;;;;;;17.20;45.40;;;;;;5109142;28;19927;-72
2023/05/18 02:45:06;;;;;;;;;;;17.10;45.30;;;;;;5117337;28;19924;-72
2023/05/18 02:47:31;;;;;;;;;;;17.10;45.30;;;;;;5111249;28;19920;-72
2023/05/18 02:49:57;;;;;;;;;;;17.10;45.30;;;;;;5111469;28;19972;-72
2023/05/18 02:52:22;;;;;;;;;;;17.10;45.40;;;;;;5111487;28;20264;-72
2023/05/18 02:54:48;;;;;;;;;;;17.10;45.30;;;;;;5129342;28;20379;-71
2023/05/18 02:57:13;;;;;;;;;;;17.10;45.40;;;;;;5101050;28;19927;-72
2023/05/18 02:59:39;;;;;;;;;;;17.10;45.40;;;;;;5115557;28;19990;-72
2023/05/18 03:02:05;;;;;;;;;;;17.00;45.40;;;;;;5097703;28;19931;-72
2023/05/18 03:04:31;;;;;;;;;;;17.00;45.40;;;;;;5097248;28;19923;-73
2023/05/18 03:06:57;;;;;;;;;;;17.10;45.50;;;;;;5097318;28;19924;-72
2023/05/18 03:09:23;;;;;;;;;;;17.00;45.40;;;;;;5097128;28;19927;-72
2023/05/18 03:11:49;;;;;;;;;;;17.00;45.50;;;;;;5097553;28;20299;-72
2023/05/18 03:14:14;;;;;;;;;;;17.00;45.40;;;;;;5097307;28;20310;-72
2023/05/18 03:16:40;;;;;;;;;;;17.00;45.50;;;;;;5097480;28;19920;-72
2023/05/18 03:19:05;;;;;;;;;;;17.00;45.50;;;;;;5115349;28;20144;-72
2023/05/18 03:21:34;;;;;;;;;;;17.00;45.50;;;;;;5115404;28;19969;-72
2023/05/18 03:24:01;;;;;;;;;;;17.00;45.50;;;;;;5115433;28;20367;-72
2023/05/18 03:26:29;;;;;;;;;;;17.00;45.50;;;;;;5096940;28;19970;-72
2023/05/18 03:28:55;;;;;;;;;;;16.90;45.50;;;;;;5097160;28;19920;-71
2023/05/18 03:31:21;;;;;;;;;;;17.00;45.50;;;;;;5115109;28;19919;-72
2023/05/18 03:33:46;;;;;;;;;;;16.90;45.50;;;;;;5097231;28;19927;-73
2023/05/18 03:36:12;;;;;;;;;;;16.90;45.60;;;;;;5115112;28;20287;-72
2023/05/18 03:38:37;;;;;;;;;;;16.90;45.50;;;;;;5095964;28;19934;-72
2023/05/18 03:41:03;;;;;;;;;;;16.90;45.50;;;;;;5114847;28;19963;-72
2023/05/18 03:43:31;;;;;;;;;;;16.90;46.30;;;;;;5096593;28;20458;-72
2023/05/18 03:45:56;;;;;;;;;;;16.90;45.50;;;;;;5096128;28;19931;-72
2023/05/18 03:48:22;;;;;;;;;;;16.90;45.50;;;;;;5096808;28;19920;-72
2023/05/18 03:50:48;;;;;;;;;;;17.00;45.60;;;;;;5096714;28;20405;-72
2023/05/18 03:53:17;;;;;;;;;;;16.80;45.50;;;;;;5096460;28;19957;-71
2023/05/18 03:55:43;;;;;;;;;;;16.80;45.50;;;;;;5114555;28;20393;-72
2023/05/18 03:58:09;;;;;;;;;;;16.90;45.60;;;;;;5096245;28;19920;-73
2023/05/18 04:00:35;;;;;;;;;;;16.80;45.50;;;;;;5096100;28;19948;-72
2023/05/18 04:03:01;;;;;;;;;;;16.80;45.60;;;;;;5096154;28;19916;-73
2023/05/18 04:05:28;;;;;;;;;;;16.80;45.60;;;;;;5114457;28;20302;-72
2023/05/18 04:07:56;;;;;;;;;;;16.80;45.60;;;;;;5095237;28;19924;-72
2023/05/18 04:10:21;;;;;;;;;;;16.80;45.60;;;;;;5095566;28;19988;-72
2023/05/18 04:12:47;;;;;;;;;;;16.80;45.70;;;;;;5113984;28;20443;-72
2023/05/18 04:15:13;;;;;;;;;;;16.80;45.70;;;;;;5096209;28;20014;-72
2023/05/18 04:17:44;;;;;;;;;;;16.80;45.70;;;;;;5096151;28;20379;-72
2023/05/18 04:20:13;;;;;;;;;;;16.80;45.70;;;;;;5096223;28;20209;-72
2023/05/18 04:22:42;;;;;;;;;;;16.80;45.70;;;;;;5096135;28;20331;-72
2023/05/18 04:25:08;;;;;;;;;;;16.80;45.70;;;;;;5095932;28;19962;-72
2023/05/18 04:27:34;;;;;;;;;;;16.70;45.70;;;;;;5113831;28;20383;-72
2023/05/18 04:29:59;;;;;;;;;;;16.70;45.70;;;;;;5114111;28;19924;-72
2023/05/18 04:32:27;;;;;;;;;;;16.70;45.70;;;;;;5095624;28;20017;-72
2023/05/18 04:34:53;;;;;;;;;;;16.70;45.70;;;;;;5095699;28;19944;-72
2023/05/18 04:37:19;;;;;;;;;;;16.70;45.70;;;;;;5095472;28;20455;-72
2023/05/18 04:39:47;;;;;;;;;;;16.70;45.70;;;;;;5113877;28;19919;-72
2023/05/18 04:42:13;;;;;;;;;;;16.70;45.70;;;;;;5078806;28;19920;-72
2023/05/18 04:44:38;;;;;;;;;;;16.70;45.70;;;;;;5094888;28;19928;-72
2023/05/18 04:47:07;;;;;;;;;;;16.70;45.80;;;;;;5095311;28;19926;-74
2023/05/18 04:49:32;;;;;;;;;;;16.70;45.80;;;;;;5113751;28;19945;-72
2023/05/18 04:51:58;;;;;;;;;;;16.70;45.80;;;;;;5113540;28;19965;-72
2023/05/18 04:54:24;;;;;;;;;;;16.70;45.80;;;;;;5095328;28;19920;-71
2023/05/18 04:56:50;;;;;;;;;;;16.70;45.90;;;;;;5095238;28;19927;-72
2023/05/18 04:59:16;;;;;;;;;;;16.70;45.90;;;;;;5095305;28;19924;-74
2023/05/18 05:01:42;;;;;;;;;;;16.70;45.90;;;;;;5095463;28;20277;-73
2023/05/18 05:04:07;;;;;;;;;;;16.70;46.00;;;;;;5095005;28;19920;-72
2023/05/18 05:06:33;;;;;;;;;;;16.70;46.00;;;;;;5112495;28;19923;-72
2023/05/18 05:08:58;;;;;;;;;;;16.70;46.00;;;;;;5113184;28;19965;-72
2023/05/18 05:11:24;;;;;;;;;;;16.60;45.90;;;;;;5113207;28;19924;-74
2023/05/18 05:13:50;;;;;;;;;;;16.70;46.00;;;;;;5113071;28;20336;-72
2023/05/18 05:16:15;;;;;;;;;;;16.70;46.00;;;;;;5094943;28;19920;-72
2023/05/18 05:18:41;;;;;;;;;;;16.70;46.00;;;;;;5095120;28;19920;-72
2023/05/18 05:21:07;;;;;;;;;;;16.70;46.00;;;;;;5094529;28;20325;-72
2023/05/18 05:23:33;;;;;;;;;;;16.70;46.00;;;;;;5095039;28;20022;-72
2023/05/18 05:25:58;;;;;;;;;;;16.70;46.10;;;;;;5113037;28;20335;-73
2023/05/18 05:28:24;;;;;;;;;;;16.70;46.10;;;;;;5094739;28;19920;-72
2023/05/18 05:30:49;;;;;;;;;;;16.60;46.00;;;;;;5094612;28;20032;-72
2023/05/18 05:33:16;;;;;;;;;;;16.70;46.10;;;;;;5094925;28;19931;-72
2023/05/18 05:35:41;;;;;;;;;;;16.70;46.10;;;;;;5094876;28;19924;-72
2023/05/18 05:38:07;;;;;;;;;;;16.70;46.10;;;;;;5094630;28;19987;-72
2023/05/18 05:40:32;;;;;;;;;;;16.60;46.10;;;;;;5094672;28;19927;-72
2023/05/18 05:42:58;;;;;;;;;;;16.70;46.10;;;;;;5094857;28;19942;-72
2023/05/18 05:45:23;;;;;;;;;;;16.60;46.40;;;;;;5094089;28;20379;-72
2023/05/18 05:47:49;;;;;;;;;;;16.60;46.10;;;;;;5112769;28;19970;-72
2023/05/18 05:50:15;;;;;;;;;;;16.60;46.10;;;;;;5094403;28;19924;-72
2023/05/18 05:52:40;;;;;;;;;;;16.70;46.20;;;;;;5094455;28;19920;-72
2023/05/18 05:55:06;;;;;;;;;;;16.70;46.20;;;;;;5094376;28;19924;-72
2023/05/18 05:57:31;;;;;;;;;;;16.70;46.20;;;;;;5112632;28;20337;-72
2023/05/18 05:59:57;;;;;;;;;;;16.70;46.20;;;;;;5094588;28;20053;-73
2023/05/18 06:02:22;;;;;;;;;;;16.60;46.10;;;;;;5112568;28;19928;-72
2023/05/18 06:04:48;;;;;;;;;;;16.60;46.10;;;;;;5094197;28;20379;-72
2023/05/18 06:07:13;;;;;;;;;;;16.60;46.10;;;;;;5094666;28;19972;-73
2023/05/18 06:09:39;;;;;;;;;;;16.60;46.10;;;;;;5094233;28;19927;-73
2023/05/18 06:12:05;;;;;;;;;;;16.60;46.00;;;;;;5094601;28;20084;-72
2023/05/18 06:14:31;;;;;;;;;;;16.70;46.10;;;;;;5094602;28;19950;-72
2023/05/18 06:16:56;;;;;;;;;;;16.60;46.00;;;;;;5094116;28;20314;-72
2023/05/18 06:19:22;;;;;;;;;;;16.60;46.00;;;;;;5094219;28;19920;-72
2023/05/18 06:21:47;;;;;;;;;;;16.70;46.10;;;;;;5094354;28;20345;-72
2023/05/18 06:24:13;;;;;;;;;;;16.70;46.10;;;;;;5094148;28;19920;-74
2023/05/18 06:26:38;;;;;;;;;;;16.60;46.00;;;;;;5094064;28;20329;-72
2023/05/18 06:29:04;;;;;;;;;;;16.60;46.00;;;;;;5094473;28;19926;-73
2023/05/18 06:31:29;;;;;;;;;;;16.70;46.10;;;;;;5094900;28;20374;-73
2023/05/18 06:33:55;;;;;;;;;;;16.70;46.10;;;;;;5097930;28;19953;-72
2023/05/18 06:36:20;;;;;;;;;;;16.70;46.00;;;;;;5097856;28;19920;-72
2023/05/18 06:38:46;;;;;;;;;;;16.70;46.10;;;;;;5098351;28;20294;-72
2023/05/18 06:41:11;;;;;;;;;;;16.80;46.10;;;;;;5098065;28;19920;-72
2023/05/18 06:43:37;;;;;;;;;;;16.70;46.00;;;;;;5098092;28;19927;-72
2023/05/18 06:46:02;;;;;;;;;;;16.70;46.00;;;;;;5115616;28;19944;-72
2023/05/18 06:48:28;;;;;;;;;;;16.70;45.90;;;;;;5115851;28;19920;-72
2023/05/18 06:50:54;;;;;;;;;;;16.70;45.90;;;;;;5116033;28;19967;-71
2023/05/18 06:53:22;;;;;;;;;;;16.70;45.90;;;;;;5097588;28;19962;-72
2023/05/18 06:55:47;;;;;;;;;;;16.70;45.90;;;;;;5115793;28;19927;-72
2023/05/18 06:58:13;;;;;;;;;;;16.70;45.90;;;;;;5097371;28;20283;-72
2023/05/18 07:00:38;;;;;;;;;;;16.70;45.80;;;;;;5115665;28;20061;-72
2023/05/18 07:03:04;;;;;;;;;;;16.70;45.80;;;;;;5097230;28;19920;-72
2023/05/18 07:05:30;;;;;;;;;;;16.70;45.80;;;;;;5097287;28;20019;-72
2023/05/18 07:07:55;;;;;;;;;;;16.70;45.70;;;;;;5115512;28;19928;-72
2023/05/18 07:10:21;;;;;;;;;;;16.70;45.70;;;;;;5097396;28;19927;-72
2023/05/18 07:12:47;;;;;;;;;;;16.60;45.60;;;;;;5115287;28;19965;-72
2023/05/18 07:15:13;;;;;;;;;;;16.70;45.70;;;;;;5097385;28;19968;-72
2023/05/18 07:17:38;;;;;;;;;;;16.70;45.60;;;;;;5096896;28;20383;-72
2023/05/18 07:20:05;;;;;;;;;;;16.70;45.60;;;;;;5096918;28;19919;-72
2023/05/18 07:22:34;;;;;;;;;;;16.70;45.50;;;;;;5097132;28;19973;-72
2023/05/18 07:24:59;;;;;;;;;;;16.70;45.50;;;;;;5096726;28;20022;-72
2023/05/18 07:27:25;;;;;;;;;;;16.70;45.50;;;;;;5115165;28;19962;-72
2023/05/18 07:29:51;;;;;;;;;;;16.70;45.50;;;;;;5096740;28;19920;-72
2023/05/18 07:32:17;;;;;;;;;;;16.80;45.50;;;;;;5114870;28;19927;-72
2023/05/18 07:34:45;;;;;;;;;;;16.70;45.40;;;;;;5096854;28;19962;-72
2023/05/18 07:37:11;;;;;;;;;;;16.70;45.40;;;;;;5096174;28;20298;-72
2023/05/18 07:39:37;;;;;;;;;;;16.70;45.40;;;;;;5114675;28;19920;-72
2023/05/18 07:42:03;;;;;;;;;;;16.60;45.30;;;;;;5096413;28;19920;-72
2023/05/18 07:44:28;;;;;;;;;;;16.70;45.40;;;;;;5096246;28;20069;-72
2023/05/18 07:46:54;;;;;;;;;;;16.70;45.30;;;;;;5096398;28;19924;-72
2023/05/18 07:49:22;;;;;;;;;;;16.70;45.30;;;;;;5114470;28;19973;-72
2023/05/18 07:51:48;;;;;;;;;;;16.70;45.30;;;;;;5096278;28;19972;-72
2023/05/18 07:54:13;;;;;;;;;;;16.70;45.20;;;;;;5096534;28;19923;-72
2023/05/18 07:56:39;;;;;;;;;;;16.70;45.20;;;;;;5096106;28;19928;-72
2023/05/18 07:59:05;;;;;;;;;;;16.70;45.20;;;;;;5095313;28;19974;-72
2023/05/18 08:01:31;;;;;;;;;;;16.70;45.20;;;;;;5114187;28;19984;-72
2023/05/18 08:03:56;;;;;;;;;;;16.80;45.20;;;;;;5096219;28;19923;-72
2023/05/18 08:06:22;;;;;;;;;;;16.80;45.20;;;;;;5095229;28;19920;-72
2023/05/18 08:08:48;;;;;;;;;;;16.70;45.20;;;;;;5113350;28;20018;-72
2023/05/18 08:11:13;;;;;;;;;;;16.70;45.20;;;;;;5096059;28;20007;-72
2023/05/18 08:13:39;;;;;;;;;;;16.80;45.20;;;;;;5095927;28;19941;-72
2023/05/18 08:16:05;;;;;;;;;;;16.80;45.30;;;;;;5096275;28;20368;-72
2023/05/18 08:18:30;;;;;;;;;;;16.80;45.20;;;;;;5114246;28;20021;-72
2023/05/18 08:20:56;;;;;;;;;;;16.70;45.10;;;;;;5096013;28;19926;-72
2023/05/18 08:23:23;;;;;;;;;;;16.80;45.10;;;;;;5096072;28;19920;-72
2023/05/18 08:25:48;;;;;;;;;;;16.80;45.10;;;;;;5095566;28;20362;-72
2023/05/18 08:28:13;;;;;;;;;;;16.80;45.00;;;;;;5113178;28;19976;-72
2023/05/18 08:30:39;;;;;;;;;;;16.80;45.10;;;;;;5095990;28;20516;-72
2023/05/18 08:33:04;;;;;;;;;;;16.80;45.00;;;;;;5113817;28;20014;-72
2023/05/18 08:35:31;;;;;;;;;;;16.80;45.00;;;;;;5095470;28;19934;-72
2023/05/18 08:37:56;;;;;;;;;;;16.80;45.00;;;;;;5095533;28;20388;-72
2023/05/18 08:40:24;;;;;;;;;;;16.80;45.10;;;;;;5095431;28;19959;-72
2023/05/18 08:42:55;;;;;;;;;;;16.80;45.10;;;;;;5095046;28;19919;-72
2023/05/18 08:45:25;;;;;;;;;;;16.90;45.10;;;;;;5113334;28;19923;-72
2023/05/18 08:47:54;;;;;;;;;;;16.90;45.10;;;;;;5095401;28;20370;-72
2023/05/18 08:50:20;;;;;;;;;;;16.90;45.10;;;;;;5095165;28;19927;-72
2023/05/18 08:52:46;;;;;;;;;;;16.90;45.10;;;;;;5095287;28;19920;-71
2023/05/18 08:55:11;;;;;;;;;;;16.90;45.80;;;;;;5094631;28;19924;-72
2023/05/18 08:57:38;;;;;;;;;;;16.90;44.90;;;;;;5095429;28;19943;-72
2023/05/18 09:00:04;;;;;;;;;;;17.00;45.00;;;;;;5113369;28;19920;-72
2023/05/18 09:02:30;;;;;;;;;;;17.00;44.90;;;;;;5095335;28;19945;-72
2023/05/18 09:04:56;;;;;;;;;;;17.00;44.80;;;;;;5094891;28;19927;-72
2023/05/18 09:07:22;;;;;;;;;;;17.00;44.80;;;;;;5113419;28;19920;-72
2023/05/18 09:09:47;;;;;;;;;;;17.00;44.70;;;;;;5095202;28;19967;-71
2023/05/18 09:12:13;;;;;;;;;;;17.00;44.70;;;;;;5113208;28;20358;-72
2023/05/18 09:14:40;;;;;;;;;;;17.10;44.60;;;;;;5095256;28;20366;-72
2023/05/18 09:17:05;;;;;;;;;;;17.10;44.60;;;;;;5095048;28;20062;-72
2023/05/18 09:19:31;;;;;;;;;;;17.10;44.50;;;;;;5113119;28;20027;-72
2023/05/18 09:21:56;;;;;;;;;;;17.10;44.50;;;;;;5094992;28;19919;-72
2023/05/18 09:24:22;;;;;;;;;;;17.20;44.50;;;;;;5094993;28;20375;-72
2023/05/18 09:26:48;;;;;;;;;;;17.20;44.40;;;;;;5112953;28;19920;-72
2023/05/18 09:29:14;;;;;;;;;;;17.20;44.40;;;;;;5095041;28;19920;-72
2023/05/18 09:31:39;;;;;;;;;;;17.20;44.30;;;;;;5112959;28;19919;-72
2023/05/18 09:34:05;;;;;;;;;;;17.20;44.40;;;;;;5094993;28;19924;-72
2023/05/18 09:36:31;;;;;;;;;;;17.20;44.30;;;;;;5094514;28;20379;-72
2023/05/18 09:38:57;;;;;;;;;;;17.30;44.30;;;;;;5094617;28;19927;-72
2023/05/18 09:41:24;;;;;;;;;;;17.30;44.30;;;;;;5094862;28;19920;-71
2023/05/18 09:43:51;;;;;;;;;;;17.30;44.30;;;;;;5094603;28;19919;-72
2023/05/18 09:46:17;;;;;;;;;;;17.30;44.30;;;;;;5094299;28;19928;-72
2023/05/18 09:48:45;;;;;;;;;;;17.30;44.20;;;;;;5094460;28;19959;-74
2023/05/18 09:51:15;;;;;;;;;;;17.30;44.20;;;;;;5094424;28;20010;-72
2023/05/18 09:53:41;;;;;;;;;;;17.30;44.20;;;;;;5094679;28;19926;-72
2023/05/18 09:56:10;;;;;;;;;;;17.30;44.20;;;;;;5094501;28;20287;-72
2023/05/18 09:58:38;;;;;;;;;;;17.30;44.20;;;;;;5094888;28;19965;-72
2023/05/18 10:01:04;;;;;;;;;;;17.30;44.30;;;;;;5094403;28;19920;-73
2023/05/18 10:03:35;;;;;;;;;;;17.30;44.20;;;;;;5112594;28;19927;-72
2023/05/18 10:06:02;;;;;;;;;;;17.30;44.20;;;;;;5094360;28;19924;-74
2023/05/18 10:08:28;;;;;;;;;;;17.40;44.30;;;;;;5098791;28;19966;-72
2023/05/18 10:10:53;;;;;;;;;;;17.30;44.20;;;;;;5098740;28;20389;-72
2023/05/18 10:13:19;;;;;;;;;;;17.40;44.30;;;;;;5098606;28;19919;-72
2023/05/18 10:15:46;;;;;;;;;;;17.40;44.30;;;;;;5116741;28;19924;-72
2023/05/18 10:18:12;;;;;;;;;;;17.40;44.30;;;;;;5098730;28;19919;-72
2023/05/18 10:20:38;;;;;;;;;;;17.40;44.30;;;;;;5098600;28;19942;-72
2023/05/18 10:23:04;;;;;;;;;;;17.40;44.30;;;;;;5098472;28;20390;-72
2023/05/18 10:25:30;;;;;;;;;;;17.40;44.30;;;;;;5098180;28;19924;-72
2023/05/18 10:27:58;;;;;;;;;;;17.40;44.30;;;;;;5098288;28;20401;-72
2023/05/18 10:30:25;;;;;;;;;;;17.40;44.30;;;;;;5098108;28;20003;-72
2023/05/18 10:32:51;;;;;;;;;;;17.40;44.30;;;;;;5098001;28;19927;-72
2023/05/18 10:35:17;;;;;;;;;;;17.40;44.30;;;;;;5097727;28;19986;-72
2023/05/18 10:37:46;;;;;;;;;;;17.40;44.30;;;;;;5097959;28;19919;-71
2023/05/18 10:40:12;;;;;;;;;;;17.40;44.40;;;;;;5097843;28;19919;-72
2023/05/18 10:42:38;;;;;;;;;;;17.40;44.40;;;;;;5116136;28;19989;-72
2023/05/18 10:45:05;;;;;;;;;;;17.40;44.40;;;;;;5097458;28;19935;-72
2023/05/18 10:47:31;;;;;;;;;;;17.40;44.40;;;;;;5097757;28;20090;-72
2023/05/18 10:49:57;;;;;;;;;;;17.40;44.40;;;;;;5115820;28;19919;-71
2023/05/18 10:52:25;;;;;;;;;;;17.40;44.40;;;;;;5097974;28;19923;-72
2023/05/18 10:54:51;;;;;;;;;;;17.30;44.40;;;;;;5097817;28;20268;-71
2023/05/18 10:57:18;;;;;;;;;;;17.40;44.40;;;;;;5097808;28;20282;-72
2023/05/18 10:59:45;;;;;;;;;;;17.40;44.50;;;;;;5097772;28;19987;-72
2023/05/18 11:02:12;;;;;;;;;;;17.40;44.50;;;;;;5097774;28;20268;-72
2023/05/18 11:04:38;;;;;;;;;;;17.40;44.50;;;;;;5097434;28;19926;-72
2023/05/18 11:07:04;;;;;;;;;;;17.40;44.60;;;;;;5097716;28;19923;-72
2023/05/18 11:09:31;;;;;;;;;;;17.40;44.60;;;;;;5115662;28;19926;-72
2023/05/18 11:11:56;;;;;;;;;;;17.40;44.60;;;;;;5097574;28;19985;-72
2023/05/18 11:14:26;;;;;;;;;;;17.40;44.60;;;;;;5115481;28;19920;-72
2023/05/18 11:16:52;;;;;;;;;;;17.40;44.70;;;;;;5097188;28;19924;-72
2023/05/18 11:19:19;;;;;;;;;;;17.30;44.70;;;;;;5115140;28;20409;-72
2023/05/18 11:27:10;;;;;;;;;;;17.40;44.80;;;;;;5110268;27;20287;-72
2023/05/18 11:29:39;;;;;;;;;;;17.30;44.70;;;;;;5109308;28;19973;-72
2023/05/18 11:32:20;;;;;;;;;;;17.30;44.80;;;;;;5108792;28;19924;-72
2023/05/18 11:34:48;;;;;;;;;;;17.30;44.80;;;;;;5108873;28;20397;-72
2023/05/18 11:37:14;;;;;;;;;;;17.30;44.80;;;;;;5108784;28;20375;-72
2023/05/18 11:39:40;;;;;;;;;;;17.30;44.90;;;;;;5108789;28;19938;-72
2023/05/18 11:42:07;;;;;;;;;;;17.40;44.90;;;;;;5108692;28;20006;-72
2023/05/18 11:44:33;;;;;;;;;;;17.30;44.90;;;;;;5108820;28;19920;-72
2023/05/18 11:47:02;;;;;;;;;;;17.30;45.00;;;;;;5108878;28;19969;-72
2023/05/18 11:49:29;;;;;;;;;;;17.30;45.80;;;;;;5109895;28;19920;-71
2023/05/18 11:51:57;;;;;;;;;;;17.40;45.00;;;;;;5108737;28;20333;-71
2023/05/18 11:54:23;;;;;;;;;;;17.30;45.00;;;;;;5108847;28;19924;-72
2023/05/18 11:56:49;;;;;;;;;;;17.30;45.00;;;;;;5108309;28;19927;-71
2023/05/18 11:59:15;;;;;;;;;;;17.30;45.00;;;;;;5109698;28;19926;-72
2023/05/18 12:01:41;;;;;;;;;;;17.30;45.00;;;;;;5108319;28;19920;-72
2023/05/18 12:04:07;;;;;;;;;;;17.30;45.10;;;;;;5107927;28;19930;-72
2023/05/18 12:06:33;;;;;;;;;;;17.30;45.10;;;;;;5108020;28;20023;-72
2023/05/18 12:08:58;;;;;;;;;;;17.40;45.10;;;;;;5107659;28;20011;-72
2023/05/18 12:11:25;;;;;;;;;;;17.40;45.10;;;;;;5108139;28;19973;-72
2023/05/18 12:13:51;;;;;;;;;;;17.40;45.20;;;;;;5109355;28;19965;-71
2023/05/18 12:16:17;;;;;;;;;;;17.40;45.20;;;;;;5108143;28;19935;-72
2023/05/18 12:18:50;;;;;;;;;;;17.40;45.30;;;;;;5108350;28;20290;-72
2023/05/18 12:21:24;;;;;;;;;;;17.40;45.20;;;;;;5108313;28;19942;-71
2023/05/18 12:23:58;;;;;;;;;;;17.40;45.20;;;;;;5108224;28;20007;-72
2023/05/18 12:26:27;;;;;;;;;;;17.40;45.30;;;;;;5124424;28;19924;-72
2023/05/18 12:28:53;;;;;;;;;;;17.40;45.30;;;;;;5111475;28;20026;-72
2023/05/18 12:31:19;;;;;;;;;;;17.40;45.30;;;;;;5111542;28;19963;-73
2023/05/18 12:33:45;;;;;;;;;;;17.40;45.30;;;;;;5111076;28;19962;-72
2023/05/18 12:36:12;;;;;;;;;;;17.40;45.30;;;;;;5110366;28;19962;-72
2023/05/18 12:38:37;;;;;;;;;;;17.40;45.30;;;;;;5096963;28;19925;-72
2023/05/18 12:41:03;;;;;;;;;;;17.40;45.30;;;;;;5096757;28;20060;-72
2023/05/18 12:43:32;;;;;;;;;;;17.40;45.30;;;;;;5097228;28;19990;-72
2023/05/18 12:45:59;;;;;;;;;;;17.40;45.30;;;;;;5097239;28;19931;-72
2023/05/18 12:48:25;;;;;;;;;;;17.40;45.30;;;;;;5097209;28;20014;-72
2023/05/18 12:50:50;;;;;;;;;;;17.40;45.30;;;;;;5115528;28;20020;-72
2023/05/18 12:53:16;;;;;;;;;;;17.40;45.30;;;;;;5097529;28;19924;-71
2023/05/18 12:55:42;;;;;;;;;;;17.40;45.40;;;;;;5097208;28;19924;-71
2023/05/18 12:58:16;;;;;;;;;;;17.40;45.40;;;;;;5115131;28;19920;-72
2023/05/18 13:00:43;;;;;;;;;;;17.40;45.40;;;;;;5097353;28;19928;-72
2023/05/18 13:03:10;;;;;;;;;;;17.50;45.50;;;;;;5095720;28;19965;-72
2023/05/18 13:05:35;;;;;;;;;;;17.40;45.50;;;;;;5095813;28;19928;-72
2023/05/18 13:08:01;;;;;;;;;;;17.40;45.60;;;;;;5095642;28;19965;-71
2023/05/18 13:10:31;;;;;;;;;;;17.40;45.60;;;;;;5096861;28;19939;-72
2023/05/18 13:13:02;;;;;;;;;;;17.50;45.60;;;;;;5097057;28;19941;-72
2023/05/18 13:15:31;;;;;;;;;;;17.50;45.60;;;;;;5115189;28;19924;-72
2023/05/18 13:17:57;;;;;;;;;;;17.40;45.60;;;;;;5097057;28;19924;-72
2023/05/18 13:20:28;;;;;;;;;;;17.50;45.60;;;;;;5114203;28;19926;-72
2023/05/18 13:22:58;;;;;;;;;;;17.50;45.60;;;;;;5096730;28;19976;-72
2023/05/18 13:25:24;;;;;;;;;;;17.50;45.60;;;;;;5096146;28;19959;-72
2023/05/18 13:27:50;;;;;;;;;;;17.50;45.60;;;;;;5096852;28;20007;-72
2023/05/18 13:30:15;;;;;;;;;;;17.50;45.70;;;;;;5096407;28;20345;-72
2023/05/18 13:32:41;;;;;;;;;;;17.50;46.40;;;;;;5096850;28;19920;-72
2023/05/18 13:35:07;;;;;;;;;;;17.50;45.60;;;;;;5114568;28;20200;-72
2023/05/18 13:37:32;;;;;;;;;;;17.50;45.60;;;;;;5096684;28;19927;-72
2023/05/18 13:39:58;;;;;;;;;;;17.50;45.70;;;;;;5096187;28;19920;-72
2023/05/18 13:42:23;;;;;;;;;;;17.50;45.70;;;;;;5096232;28;19926;-72
2023/05/18 13:44:49;;;;;;;;;;;17.50;45.70;;;;;;5096382;28;19920;-72
2023/05/18 13:47:14;;;;;;;;;;;17.50;45.70;;;;;;5114542;28;20371;-71
2023/05/18 13:49:40;;;;;;;;;;;17.50;45.70;;;;;;5095154;28;19972;-72
2023/05/18 13:52:08;;;;;;;;;;;17.50;45.70;;;;;;5114374;28;19920;-71
2023/05/18 13:54:34;;;;;;;;;;;17.50;45.70;;;;;;5096314;28;20282;-72
2023/05/18 13:56:59;;;;;;;;;;;17.40;45.60;;;;;;5095744;28;19927;-72
2023/05/18 13:59:26;;;;;;;;;;;17.50;45.70;;;;;;5096309;28;19920;-72
2023/05/18 14:01:52;;;;;;;;;;;17.50;45.70;;;;;;5114255;28;19926;-72
2023/05/18 14:04:17;;;;;;;;;;;17.50;45.70;;;;;;5096153;28;20378;-72
2023/05/18 14:06:43;;;;;;;;;;;17.50;45.80;;;;;;5114072;28;20264;-72
2023/05/18 14:09:08;;;;;;;;;;;17.60;45.80;;;;;;5095984;28;19965;-72
2023/05/18 14:11:35;;;;;;;;;;;17.60;45.80;;;;;;5095577;28;19919;-72
2023/05/18 14:14:01;;;;;;;;;;;17.60;45.80;;;;;;5114131;28;20401;-72
2023/05/18 14:16:27;;;;;;;;;;;17.60;45.80;;;;;;5095591;28;19974;-72
2023/05/18 14:18:52;;;;;;;;;;;17.60;45.90;;;;;;5095827;28;19919;-71
2023/05/18 14:21:18;;;;;;;;;;;17.60;45.90;;;;;;5095666;28;19920;-72